Latest Weather Observations for Cerberus

IDV60901

Issued at 3:41 pm EDT Tuesday 3 March 2015 (issued every 10 minutes, with the page automatically refreshed every 10 minutes)

About weather observations | Map of Melbourne area stations | Latest observations for Melbourne area | Other Formats
Station Details ID: 086361 Name: CERBERUS Lat: -38.36 Lon: 145.18 Height: 12.69 m
Data from the previous 72 hours. | See also: Recent months at Cerberus
Date/Time
EDT
Tmp

°C
App
Tmp
°C
Dew
Point
°C
Rel
Hum
%
Delta-T

°C
Wind Press
QNH
hPa
Press
MSL
hPa
Rain
since
9 am
mm
Dir
 
Spd
km/h
Gust
km/h
Spd
kts
Gust
kts
03/03:30pm 19.5 15.8 9.4 52 5.3 SSW 19 26 10 14 1016.3 1016.2 0.0
03/03:00pm 20.2 16.4 9.2 49 5.8 SSW 19 26 10 14 1016.5 1016.4 0.0
03/02:30pm 20.2 16.6 8.5 47 6.1 SSW 17 24 9 13 1016.7 1016.6 0.0
03/02:00pm 20.7 17.2 7.3 42 6.9 SSW 15 24 8 13 1016.8 1016.7 0.0
03/01:30pm 20.3 17.5 8.6 47 6.1 SSW 13 19 7 10 1016.9 1016.8 0.0
03/01:00pm 20.2 17.8 8.5 47 6.1 SSW 11 19 6 10 1017.2 1017.1 0.0
03/12:30pm 19.9 17.4 9.8 52 5.4 SSW 13 19 7 10 1017.6 1017.5 0.0
03/12:00pm 19.6 18.0 10.3 55 5.0 SSW 9 15 5 8 1017.8 1017.7 0.0
03/11:30am 19.1 16.9 10.9 59 4.5 SSW 13 20 7 11 1017.8 1017.7 0.0
03/11:00am 18.8 16.3 11.1 61 4.2 SSW 15 22 8 12 1017.8 1017.7 0.0
03/10:30am 18.2 15.8 11.3 64 3.7 S 15 24 8 13 1017.6 1017.5 0.0
03/10:00am 17.9 16.3 11.5 66 3.5 SSW 11 17 6 9 1017.6 1017.5 0.0
03/09:30am 17.4 16.0 12.3 72 2.8 SSW 11 20 6 11 1017.4 1017.3 0.0
03/09:00am 15.8 15.9 13.8 88 1.1 SW 6 9 3 5 1017.1 1017.0 0.0
03/08:30am 13.8 14.5 12.2 90 0.9 CALM 0 0 0 0 1017.0 1016.9 0.0
03/08:00am 13.1 13.6 11.5 90 0.8 CALM 0 0 0 0 1016.8 1016.7 0.0
03/07:30am 12.4 12.7 10.8 90 0.8 CALM 0 0 0 0 1016.6 1016.5 0.0
03/07:00am 12.3 12.5 10.5 89 0.9 CALM 0 0 0 0 1016.0 1015.9 0.0
03/06:30am 12.4 12.6 10.5 88 1.0 CALM 0 0 0 0 1015.8 1015.7 0.0
03/06:00am 12.5 12.7 10.6 88 1.0 CALM 0 0 0 0 1015.5 1015.4 0.0
03/05:30am 12.9 12.4 10.8 87 1.1 SW 4 6 2 3 1015.3 1015.2 0.0
03/05:00am 13.9 13.3 11.6 86 1.2 SW 6 6 3 3 1015.2 1015.1 0.0
03/04:30am 14.1 14.3 11.8 86 1.2 SSW 2 2 1 1 1015.2 1015.1 0.0
03/04:00am 14.6 14.6 12.3 86 1.2 SSW 4 6 2 3 1015.1 1015.0 0.0
03/03:30am 14.4 14.0 12.3 87 1.1 WSW 6 7 3 4 1015.2 1015.1 0.0
03/03:00am 14.9 15.1 12.9 88 1.1 WNW 4 6 2 3 1015.5 1015.4 0.0
03/02:30am 15.2 15.8 13.1 87 1.2 WNW 2 6 1 3 1015.4 1015.3 0.0
03/02:00am 15.3 15.1 13.5 89 1.0 SW 7 9 4 5 1015.9 1015.8 0.0
03/01:30am 14.9 15.1 12.9 88 1.1 S 4 6 2 3 1015.7 1015.6 0.0
03/01:00am 14.9 15.0 12.8 87 1.2 S 4 6 2 3 1015.7 1015.6 0.0
03/12:30am 15.1 16.0 13.0 87 1.2 CALM 0 0 0 0 1015.2 1015.1 0.0
03/12:00am 15.1 15.9 12.6 85 1.4 CALM 0 0 0 0 1015.3 1015.2 0.0
 
Date/Time
EDT
Tmp

°C
App
Tmp
°C
Dew
Point
°C
Rel
Hum
%
Delta-T

°C
Wind Press
QNH
hPa
Press
MSL
hPa
Rain
since
9 am
mm
Dir
 
Spd
km/h
Gust
km/h
Spd
kts
Gust
kts
02/11:30pm 15.4 15.9 12.9 85 1.4 S 2 4 1 2 1015.6 1015.5 0.0
02/11:00pm 15.9 16.5 13.2 84 1.5 S 2 4 1 2 1015.7 1015.6 0.0
02/10:30pm 15.4 15.7 12.3 82 1.7 S 2 6 1 3 1015.8 1015.7 0.0
02/10:00pm 16.0 16.4 12.6 80 1.9 S 2 4 1 2 1016.0 1015.9 0.0
02/09:30pm 16.1 16.1 12.5 79 2.0 S 4 6 2 3 1015.6 1015.5 0.0
02/09:00pm 16.6 17.4 12.4 76 2.3 CALM 0 0 0 0 1015.3 1015.2 0.0
02/08:30pm 16.9 16.5 12.4 75 2.5 S 6 7 3 4 1015.1 1015.0 0.0
02/08:00pm 17.4 16.9 12.5 73 2.7 S 7 11 4 6 1014.9 1014.8 0.0
02/07:30pm 18.0 17.4 12.2 69 3.2 S 7 13 4 7 1014.7 1014.6 0.0
02/07:00pm 18.6 17.2 12.1 66 3.6 SSW 11 15 6 8 1014.5 1014.4 0.0
02/06:30pm 19.3 18.2 12.1 63 4.0 SSW 9 15 5 8 1014.4 1014.3 0.0
02/06:00pm 20.3 18.9 11.0 55 5.1 S 9 15 5 8 1014.1 1014.0 0.0
02/05:30pm 21.0 19.3 9.9 49 6.0 S 9 15 5 8 1013.8 1013.7 0.0
02/05:00pm 21.4 19.5 9.0 45 6.6 SSE 9 15 5 8 1014.0 1013.9 0.0
02/04:30pm 21.8 20.5 9.3 45 6.7 SSE 6 13 3 7 1014.5 1014.4 0.0
02/04:00pm 22.8 21.6 9.6 43 7.1 SW 6 11 3 6 1014.4 1014.3 0.0
02/03:30pm 21.4 19.9 8.3 43 6.9 E 6 9 3 5 1014.7 1014.6 0.0
02/03:00pm 20.4 18.6 8.1 45 6.4 E 7 11 4 6 1015.4 1015.3 0.0
02/02:30pm 20.7 18.8 7.7 43 6.7 ESE 7 11 4 6 1015.6 1015.5 0.0
02/02:00pm 19.8 17.0 8.5 48 5.9 SSE 13 17 7 9 1015.9 1015.8 0.0
02/01:30pm 20.8 18.8 6.4 39 7.3 SE 6 11 3 6 1016.5 1016.4 0.0
02/01:00pm 19.7 18.1 7.8 46 6.1 ENE 6 9 3 5 1016.6 1016.5 0.0
02/12:30pm 18.4 15.8 6.3 45 6.0 NE 9 15 5 8 1017.2 1017.1 0.0
02/12:00pm 18.6 16.5 8.3 51 5.3 NNE 9 17 5 9 1017.6 1017.5 0.0
02/11:30am 17.9 15.4 8.2 53 5.0 NNE 11 17 6 9 1017.9 1017.8 0.0
02/11:00am 17.7 15.6 8.3 54 4.8 NNE 9 19 5 10 1018.4 1018.3 0.0
02/10:30am 17.4 15.7 8.3 55 4.7 ENE 7 15 4 8 1018.4 1018.3 0.0
02/10:00am 16.5 14.8 8.5 59 4.1 ENE 7 15 4 8 1018.6 1018.5 0.0
02/09:30am 16.6 15.1 9.3 62 3.8 ENE 7 13 4 7 1018.6 1018.5 0.0
02/09:00am 15.5 15.0 11.9 79 1.9 ENE 6 11 3 6 1018.5 1018.4 0.0
02/08:30am 14.1 14.1 12.5 90 0.9 NW 4 6 2 3 1018.4 1018.3 0.0
02/08:00am 10.8 10.7 9.4 91 0.7 CALM 0 0 0 0 1018.7 1018.6 0.0
02/07:30am 9.3 8.8 7.9 91 0.7 CALM 0 0 0 0 1018.7 1018.6 0.0
02/07:00am 9.3 8.0 7.7 90 0.8 NW 4 4 2 2 1018.2 1018.1 0.0
02/06:30am 10.2 9.5 8.6 90 0.8 NW 2 4 1 2 1018.2 1018.1 0.0
02/06:00am 9.6 8.4 8.2 91 0.7 NW 4 4 2 2 1018.2 1018.1 0.0
02/05:30am 8.6 8.0 7.2 91 0.7 CALM 0 2 0 1 1018.0 1017.9 0.0
02/05:00am 8.0 7.2 6.5 90 0.7 CALM 0 0 0 0 1017.8 1017.7 0.0
02/04:30am 8.7 8.0 7.0 89 0.8 CALM 0 0 0 0 1017.7 1017.6 0.0
02/04:00am 8.7 8.0 7.0 89 0.8 CALM 0 0 0 0 1018.0 1017.9 0.0
02/03:30am 8.7 7.6 6.8 88 0.9 NW 2 6 1 3 1018.2 1018.1 0.0
02/03:00am 9.5 8.2 7.6 88 0.9 NW 4 6 2 3 1018.6 1018.5 0.0
02/02:30am 9.7 8.4 7.6 87 1.0 WNW 4 6 2 3 1018.6 1018.5 0.0
02/02:00am 10.2 9.0 8.0 86 1.1 WNW 4 6 2 3 1018.7 1018.6 0.0
02/01:30am 10.6 9.8 8.2 85 1.2 WSW 2 4 1 2 1018.5 1018.4 0.0
02/01:00am 10.8 9.6 8.0 83 1.4 WSW 4 6 2 3 1018.2 1018.1 0.0
02/12:30am 11.2 10.0 8.2 82 1.5 WSW 4 6 2 3 1018.0 1017.9 0.0
02/12:00am 11.1 9.8 7.8 80 1.6 W 4 6 2 3 1018.1 1018.0 0.0
 
Date/Time
EDT
Tmp

°C
App
Tmp
°C
Dew
Point
°C
Rel
Hum
%
Delta-T

°C
Wind Press
QNH
hPa
Press
MSL
hPa
Rain
since
9 am
mm
Dir
 
Spd
km/h
Gust
km/h
Spd
kts
Gust
kts
01/11:30pm 12.5 11.0 9.0 79 1.8 W 7 9 4 5 1018.3 1018.2 0.0
01/11:00pm 12.3 10.9 8.8 79 1.7 W 6 7 3 4 1018.4 1018.3 0.0
01/10:30pm 12.9 11.4 9.2 78 1.9 WSW 7 9 4 5 1018.5 1018.4 0.0
01/10:00pm 13.6 12.1 9.3 75 2.2 W 7 9 4 5 1018.3 1018.2 0.0
01/09:30pm 14.9 13.7 9.5 70 2.8 SSW 6 9 3 5 1018.3 1018.2 0.0
01/09:00pm 15.6 13.9 9.9 69 3.0 SSW 9 15 5 8 1018.0 1017.9 0.0
01/08:30pm 15.9 14.3 10.2 69 3.0 SSW 9 13 5 7 1017.4 1017.3 0.0
01/08:00pm 16.7 14.9 10.8 68 3.1 SSW 11 17 6 9 1017.5 1017.4 0.0
01/07:30pm 16.6 14.7 10.5 67 3.2 S 11 20 6 11 1017.4 1017.3 0.0
01/07:00pm 17.2 14.9 10.3 64 3.7 S 13 20 7 11 1017.1 1017.0 0.0
01/06:30pm 17.7 15.1 10.8 64 3.7 S 15 20 8 11 1016.8 1016.7 0.0
01/06:00pm 18.3 15.6 11.6 65 3.7 SSW 17 28 9 15 1016.8 1016.7 0.0
01/05:30pm 18.9 15.9 11.9 64 3.9 SSW 19 30 10 16 1016.3 1016.2 0.0
01/05:00pm 18.8 15.0 11.1 61 4.2 SSW 22 35 12 19 1015.9 1015.8 0.0
01/04:30pm 19.2 15.1 10.2 56 4.8 SSW 22 33 12 18 1015.7 1015.6 0.0
01/04:00pm 18.7 14.8 10.8 60 4.3 SSW 22 32 12 17 1015.6 1015.5 0.0
01/03:30pm 19.9 16.1 11.1 57 4.8 SW 22 32 12 17 1015.5 1015.4 0.0
01/03:00pm 19.4 15.1 10.7 57 4.7 SW 24 35 13 19 1015.3 1015.2 0.0
01/02:30pm 20.1 16.7 11.3 57 4.8 SW 20 32 11 17 1015.1 1015.0 0.0
01/02:00pm 19.6 16.2 11.1 58 4.6 SSW 20 28 11 15 1014.9 1014.8 0.0
01/01:30pm 19.8 16.1 10.2 54 5.2 SW 20 33 11 18 1014.6 1014.5 0.0
01/01:00pm 20.6 17.6 11.8 57 4.9 SSW 19 28 10 15 1014.6 1014.5 0.0
01/12:30pm 19.8 16.5 11.6 59 4.5 SSW 20 32 11 17 1014.5 1014.4 0.0
01/12:00pm 19.2 15.6 10.7 58 4.6 SSW 20 30 11 16 1014.1 1014.0 0.0
01/11:30am 19.1 15.8 10.9 59 4.5 SW 19 30 10 16 1013.8 1013.7 0.0
01/11:00am 18.5 14.8 10.1 58 4.5 SSW 20 30 11 16 1013.2 1013.2 0.0
01/10:30am 18.7 14.9 9.8 56 4.7 SSW 20 33 11 18 1012.8 1012.8 0.0
01/10:00am 19.0 15.3 10.3 57 4.7 SSW 20 30 11 16 1012.3 1012.3 0.0
01/09:30am 18.3 15.0 10.9 62 4.0 SSW 19 32 10 17 1011.7 1011.7 0.0
01/09:00am 18.0 15.1 11.1 64 3.7 SSW 17 24 9 13 1011.2 1011.2 11.0
01/08:30am 16.9 14.2 10.3 65 3.5 SSW 15 26 8 14 1010.9 1010.9 11.0
01/08:00am 17.0 14.4 10.8 67 3.3 SSW 15 30 8 16 1010.3 1010.3 11.0
01/07:30am 16.4 12.8 10.5 68 3.1 SSW 20 30 11 16 1009.6 1009.6 11.0
01/07:00am 16.4 13.6 11.3 72 2.8 SW 17 24 9 13 1009.0 1009.0 11.0
01/06:30am 16.4 14.3 11.1 71 2.8 SW 13 19 7 10 1008.5 1008.5 11.0
01/06:00am 16.6 13.7 11.1 70 3.0 SW 17 26 9 14 1007.9 1007.9 11.0
01/05:30am 16.6 13.3 11.7 73 2.7 SW 20 33 11 18 1007.1 1007.1 11.0
01/05:00am 16.4 13.2 11.8 74 2.5 SW 20 35 11 19 1006.7 1006.7 11.0
01/04:30am 16.6 12.9 12.6 77 2.2 SW 24 39 13 21 1006.2 1006.2 11.0
01/04:00am 17.0 14.5 13.5 80 2.0 SSW 19 30 10 16 1006.0 1006.0 11.0
01/03:30am 17.0 13.9 13.5 80 2.0 SSW 22 35 12 19 1005.7 1005.7 11.0
01/03:00am 16.9 14.1 14.4 85 1.4 SSW 22 35 12 19 1005.6 1005.6 11.0
01/02:30am 16.8 14.9 15.3 91 0.9 SW 19 35 10 19 1005.7 1005.7 11.0
01/02:00am 16.9 15.2 15.8 93 0.6 SW 19 28 10 15 1005.6 1005.6 11.0
01/01:30am 17.3 15.7 16.0 92 0.8 SW 19 33 10 18 1005.6 1005.6 10.4
01/01:00am 17.8 18.3 16.5 92 0.8 WSW 9 13 5 7 1005.3 1005.3 9.8
01/12:30am 18.2 19.2 16.9 92 0.8 SSW 7 17 4 9 1005.1 1005.1 8.8
01/12:00am 18.3 20.7 17.0 92 0.8 CALM 0 0 0 0 1005.3 1005.3 8.4
 
Date/Time
EDT
Tmp

°C
App
Tmp
°C
Dew
Point
°C
Rel
Hum
%
Delta-T

°C
Wind Press
QNH
hPa
Press
MSL
hPa
Rain
since
9 am
mm
Dir
 
Spd
km/h
Gust
km/h
Spd
kts
Gust
kts
28/11:30pm 18.1 20.0 16.6 91 0.9 WSW 2 6 1 3 1005.2 1005.2 7.8
28/11:00pm 18.3 19.9 16.8 91 0.9 WSW 4 6 2 3 1005.8 1005.8 6.4
28/10:30pm 18.4 19.6 16.9 91 0.9 WSW 6 9 3 5 1005.4 1005.4 4.0
28/10:00pm 18.4 19.0 16.7 90 1.0 WSW 9 17 5 9 1005.0 1005.0 3.0
28/09:30pm 18.7 16.8 16.7 88 1.2 SW 22 35 12 19 1005.0 1005.0 1.6
28/09:00pm 19.5 14.5 16.2 81 2.0 SW 37 59 20 32 1004.5 1004.5 0.6
28/08:43pm 23.0 20.1 15.1 61 4.7 WSW 24 91 13 49 1003.1 1003.1 0.0
28/08:42pm 23.6 22.1 15.4 60 4.9 WSW 17 52 9 28 1003.0 1003.0 0.0
28/08:41pm 23.8 22.6 15.0 57 5.3 W 15 43 8 23 1002.4 1002.4 0.0
28/08:30pm 27.2 25.8 10.8 36 9.3 NNW 9 19 5 10 1000.1 1000.1 0.0
28/08:00pm 25.9 25.9 13.7 47 7.2 NNE 6 13 3 7 999.0 999.0 0.0
28/07:30pm 26.7 26.3 13.1 43 8.0 NE 7 15 4 8 999.1 999.1 0.0
28/07:00pm 27.6 27.3 12.8 40 8.7 ENE 6 7 3 4 999.2 999.2 0.0
28/06:30pm 28.5 28.2 13.2 39 9.0 NE 7 13 4 7 999.7 999.7 0.0
28/06:00pm 29.1 28.6 12.5 36 9.8 NE 7 13 4 7 1000.3 1000.3 0.0
28/05:30pm 28.6 27.7 11.2 34 10.0 NE 7 15 4 8 1001.1 1001.1 0.0
28/05:00pm 27.2 27.0 14.6 46 7.6 E 9 13 5 7 1001.6 1001.6 0.0
28/04:30pm 26.1 27.2 16.6 55 5.9 E 6 9 3 5 1002.1 1002.1 0.0
28/04:00pm 23.4 24.1 15.5 61 4.8 SE 6 9 3 5 1002.8 1002.8 0.0

Latest Capital City Observations: Canberra | Sydney | Melbourne | Brisbane | Adelaide | Perth | Hobart | Darwin

Other Formats:

Comma delimited format used in spreadsheet applications
http://www.bom.gov.au/fwo/IDV60901/IDV60901.94898.axf

JavaScript Object Notation format (JSON) in row-major order
http://www.bom.gov.au/fwo/IDV60901/IDV60901.94898.json